Time;durP1;ratioP1;P1;durP2;ratioP2;P2;SDS_P1;SDS_P2;PMS_P1;PMS_P2;Temp;Humidity;BMP_temperature;BMP_pressure;BME280_temperature;BME280_humidity;BME280_pressure;Samples;Min_cycle;Max_cycle;Signal;HPM_P1;HPM_P2
2022/04/26 03:37:05;;;;;;;12.88;6.13;;;;;;;;;;5031149;28;20058;-62
2022/04/26 03:39:34;;;;;;;15.55;6.80;;;;;;;;;;5029571;28;20091;-62
2022/04/26 03:42:02;;;;;;;12.00;5.60;;;;;;;;;;5030592;28;20509;-61
2022/04/26 03:44:28;;;;;;;10.38;6.03;;;;;;;;;;5037847;28;20028;-61
2022/04/26 03:46:54;;;;;;;16.60;6.25;;;;;;;;;;5029523;28;20065;-62
2022/04/26 03:49:23;;;;;;;13.20;6.35;;;;;;;;;;5030857;28;20025;-62
2022/04/26 03:51:52;;;;;;;16.10;6.22;;;;;;;;;;5034374;28;20049;-61
2022/04/26 03:54:19;;;;;;;10.43;6.25;;;;;;;;;;5029093;28;20128;-61
2022/04/26 03:56:45;;;;;;;10.10;5.82;;;;;;;;;;5034168;28;20548;-61
2022/04/26 03:59:11;;;;;;;11.82;6.15;;;;;;;;;;5031390;28;20041;-62
2022/04/26 04:01:39;;;;;;;21.00;6.30;;;;;;;;;;5031371;28;20033;-62
2022/04/26 04:04:05;;;;;;;8.52;5.68;;;;;;;;;;5027641;28;20038;-62
2022/04/26 04:06:30;;;;;;;14.60;5.55;;;;;;;;;;5030608;28;20025;-61
2022/04/26 04:08:56;;;;;;;11.95;6.35;;;;;;;;;;5027998;28;20057;-61
2022/04/26 04:11:22;;;;;;;8.88;5.15;;;;;;;;;;5033096;28;20037;-61
2022/04/26 04:13:48;;;;;;;16.77;6.03;;;;;;;;;;5037568;28;20032;-62
2022/04/26 04:16:14;;;;;;;11.60;5.30;;;;;;;;;;5037717;28;20029;-62
2022/04/26 04:21:24;;;;;;;16.50;6.00;;;;;;;;;;5038858;28;20025;-61
2022/04/26 04:23:50;;;;;;;12.10;5.68;;;;;;;;;;5041244;28;20469;-61
2022/04/26 04:26:16;;;;;;;15.30;6.07;;;;;;;;;;5035668;28;20191;-62
2022/04/26 04:28:41;;;;;;;12.65;5.50;;;;;;;;;;5039289;28;20040;-62
2022/04/26 04:31:09;;;;;;;10.93;5.07;;;;;;;;;;5043544;28;20021;-62
2022/04/26 04:33:39;;;;;;;8.55;5.03;;;;;;;;;;5041881;28;20029;-62
2022/04/26 04:36:05;;;;;;;13.60;6.05;;;;;;;;;;5040116;28;20533;-61
2022/04/26 04:38:31;;;;;;;12.13;5.65;;;;;;;;;;5040518;28;20025;-62
2022/04/26 04:40:57;;;;;;;9.20;5.57;;;;;;;;;;5036894;28;20025;-62
2022/04/26 04:43:23;;;;;;;10.85;5.78;;;;;;;;;;5035133;28;20110;-62
2022/04/26 04:45:49;;;;;;;9.52;5.82;;;;;;;;;;5041675;28;20040;-62
2022/04/26 04:48:15;;;;;;;8.00;5.30;;;;;;;;;;5041061;28;20405;-61
2022/04/26 04:50:41;;;;;;;10.88;6.00;;;;;;;;;;5045356;28;20477;-61
2022/04/26 04:53:07;;;;;;;11.07;5.35;;;;;;;;;;5037208;28;20033;-62
2022/04/26 04:55:33;;;;;;;8.55;5.00;;;;;;;;;;5043433;28;20093;-62
2022/04/26 04:57:58;;;;;;;8.23;5.60;;;;;;;;;;5040892;28;20029;-62
2022/04/26 05:00:24;;;;;;;11.40;5.75;;;;;;;;;;5043665;28;20104;-61
2022/04/26 05:02:50;;;;;;;10.27;5.70;;;;;;;;;;5041232;28;20052;-62
2022/04/26 05:05:16;;;;;;;8.77;5.13;;;;;;;;;;5036529;28;20021;-62
2022/04/26 05:07:42;;;;;;;11.23;5.53;;;;;;;;;;5040684;28;20120;-62
2022/04/26 05:10:09;;;;;;;9.85;5.68;;;;;;;;;;5042257;28;20025;-62
2022/04/26 05:12:35;;;;;;;9.05;4.90;;;;;;;;;;5041435;28;20379;-61
2022/04/26 05:15:01;;;;;;;7.85;5.47;;;;;;;;;;5042876;28;20456;-62
2022/04/26 05:17:29;;;;;;;10.55;5.90;;;;;;;;;;5036885;28;20482;-62
2022/04/26 05:19:55;;;;;;;10.82;5.70;;;;;;;;;;5045289;28;20421;-61
2022/04/26 05:22:21;;;;;;;12.85;5.28;;;;;;;;;;5041630;28;20037;-61
2022/04/26 05:24:58;;;;;;;9.13;4.90;;;;;;;;;;5041785;28;20390;-61
2022/04/26 05:27:29;;;;;;;8.65;5.20;;;;;;;;;;5037410;28;20079;-61
2022/04/26 05:29:56;;;;;;;11.35;5.03;;;;;;;;;;5042998;28;20497;-62
2022/04/26 05:32:27;;;;;;;12.32;5.60;;;;;;;;;;5039812;28;20029;-61
2022/04/26 05:34:58;;;;;;;10.43;5.15;;;;;;;;;;5041955;28;20040;-62
2022/04/26 05:37:28;;;;;;;10.77;5.40;;;;;;;;;;5039060;28;20026;-62
2022/04/26 05:39:55;;;;;;;14.73;5.70;;;;;;;;;;5038841;28;20031;-62
2022/04/26 05:42:21;;;;;;;11.77;5.25;;;;;;;;;;5038778;28;20124;-62
2022/04/26 05:44:47;;;;;;;8.63;5.30;;;;;;;;;;5039217;28;20131;-62
2022/04/26 05:47:13;;;;;;;15.93;6.30;;;;;;;;;;5042096;28;20068;-62
2022/04/26 05:49:39;;;;;;;9.95;5.30;;;;;;;;;;5044401;28;20463;-62
2022/04/26 05:52:05;;;;;;;12.07;5.53;;;;;;;;;;5045188;28;20029;-62
2022/04/26 05:54:32;;;;;;;12.73;5.05;;;;;;;;;;5041352;28;20052;-62
2022/04/26 05:56:58;;;;;;;14.38;5.80;;;;;;;;;;5040395;28;20032;-62
2022/04/26 05:59:24;;;;;;;9.35;5.55;;;;;;;;;;5036654;28;20040;-62
2022/04/26 06:01:51;;;;;;;17.15;5.68;;;;;;;;;;5044978;28;20036;-62
2022/04/26 06:04:18;;;;;;;9.90;5.70;;;;;;;;;;5038886;28;20025;-62
2022/04/26 06:06:43;;;;;;;16.00;5.32;;;;;;;;;;5036895;28;20092;-62
2022/04/26 06:09:09;;;;;;;11.93;5.10;;;;;;;;;;5036680;28;20132;-62
2022/04/26 06:11:35;;;;;;;13.90;5.80;;;;;;;;;;5038886;28;20489;-62
2022/04/26 06:14:02;;;;;;;15.52;5.50;;;;;;;;;;5036603;28;20052;-62
2022/04/26 06:16:28;;;;;;;10.30;6.15;;;;;;;;;;5036814;28;20039;-62
2022/04/26 06:18:54;;;;;;;13.20;5.28;;;;;;;;;;5037382;28;20367;-62
2022/04/26 06:21:21;;;;;;;12.52;5.03;;;;;;;;;;5039126;28;20557;-62
2022/04/26 06:23:46;;;;;;;15.25;5.78;;;;;;;;;;5037837;28;20121;-62
2022/04/26 06:26:12;;;;;;;10.23;5.07;;;;;;;;;;5035317;28;20034;-62
2022/04/26 06:28:38;;;;;;;13.88;5.07;;;;;;;;;;5046603;28;20040;-62
2022/04/26 06:31:03;;;;;;;10.02;5.63;;;;;;;;;;5036888;28;20071;-62
2022/04/26 06:33:29;;;;;;;13.00;4.57;;;;;;;;;;5040270;28;20040;-62
2022/04/26 06:35:55;;;;;;;13.15;4.70;;;;;;;;;;5039091;28;20033;-62
2022/04/26 06:38:23;;;;;;;12.57;4.50;;;;;;;;;;5039672;28;20025;-62
2022/04/26 06:40:49;;;;;;;12.93;4.88;;;;;;;;;;5033313;28;20037;-62
2022/04/26 06:43:14;;;;;;;15.18;5.15;;;;;;;;;;5037793;28;20025;-62
2022/04/26 06:45:40;;;;;;;14.13;5.53;;;;;;;;;;5039193;28;20037;-62
2022/04/26 06:48:10;;;;;;;13.98;6.03;;;;;;;;;;5039977;28;20705;-62
2022/04/26 06:50:37;;;;;;;10.05;5.32;;;;;;;;;;5035036;28;20058;-62
2022/04/26 06:53:04;;;;;;;14.93;5.75;;;;;;;;;;5033706;28;20029;-62
2022/04/26 06:55:29;;;;;;;15.10;5.80;;;;;;;;;;5037311;28;20037;-62
2022/04/26 06:57:55;;;;;;;16.08;6.18;;;;;;;;;;5039064;28;20047;-62
2022/04/26 07:00:21;;;;;;;10.57;5.45;;;;;;;;;;5040015;28;20537;-62
2022/04/26 07:02:47;;;;;;;15.75;5.95;;;;;;;;;;5037285;28;20037;-62
2022/04/26 07:05:14;;;;;;;12.60;5.55;;;;;;;;;;5031887;28;20024;-60
2022/04/26 07:07:40;;;;;;;13.82;5.70;;;;;;;;;;5035274;28;20017;-62
2022/04/26 07:10:07;;;;;;;12.73;5.25;;;;;;;;;;5042179;28;20060;-62
2022/04/26 07:12:32;;;;;;;12.18;5.95;;;;;;;;;;5036082;28;20116;-61
2022/04/26 07:14:58;;;;;;;15.45;5.45;;;;;;;;;;5036455;28;20167;-62
2022/04/26 07:17:24;;;;;;;12.02;5.40;;;;;;;;;;5038837;28;20420;-62
2022/04/26 07:19:50;;;;;;;8.45;6.28;;;;;;;;;;5038935;28;20028;-62
2022/04/26 07:22:16;;;;;;;12.70;5.82;;;;;;;;;;5035472;28;20501;-62
2022/04/26 07:24:42;;;;;;;12.60;5.93;;;;;;;;;;5034818;28;20025;-62
2022/04/26 07:27:07;;;;;;;10.45;6.18;;;;;;;;;;5038235;28;20032;-62
2022/04/26 07:29:34;;;;;;;10.13;6.10;;;;;;;;;;5035639;28;20037;-62
2022/04/26 07:32:00;;;;;;;7.82;6.28;;;;;;;;;;5036605;28;20044;-62
2022/04/26 07:34:26;;;;;;;11.43;6.43;;;;;;;;;;5038099;28;20418;-62
2022/04/26 07:37:01;;;;;;;10.65;6.28;;;;;;;;;;5034904;28;20047;-62
2022/04/26 07:39:28;;;;;;;17.08;7.10;;;;;;;;;;5039558;28;20029;-62
2022/04/26 07:41:54;;;;;;;18.95;7.43;;;;;;;;;;5035603;28;20080;-62
2022/04/26 07:44:20;;;;;;;12.32;7.55;;;;;;;;;;5035419;28;20499;-62
2022/04/26 07:46:48;;;;;;;17.70;7.82;;;;;;;;;;5034948;28;20061;-62
2022/04/26 07:49:16;;;;;;;24.17;9.05;;;;;;;;;;5040470;28;20029;-62
2022/04/26 07:51:43;;;;;;;18.45;8.45;;;;;;;;;;5036955;28;20367;-62
2022/04/26 07:54:09;;;;;;;14.15;7.97;;;;;;;;;;5038103;28;20275;-62
2022/04/26 07:56:35;;;;;;;16.77;7.60;;;;;;;;;;5035549;28;20463;-62
2022/04/26 07:59:03;;;;;;;17.15;9.45;;;;;;;;;;5042539;28;20036;-62
2022/04/26 08:01:32;;;;;;;13.50;8.20;;;;;;;;;;5039971;28;20033;-62
2022/04/26 08:03:59;;;;;;;12.70;7.50;;;;;;;;;;5040354;28;20435;-62
2022/04/26 08:06:25;;;;;;;13.93;7.95;;;;;;;;;;5035645;28;20021;-62
2022/04/26 08:08:50;;;;;;;13.93;7.78;;;;;;;;;;5038495;28;20032;-62
2022/04/26 08:11:16;;;;;;;20.63;8.35;;;;;;;;;;5042441;28;20021;-62
2022/04/26 08:13:43;;;;;;;15.77;8.68;;;;;;;;;;5037708;28;20104;-62
2022/04/26 08:16:10;;;;;;;13.45;8.65;;;;;;;;;;5039193;28;20517;-62
2022/04/26 08:18:36;;;;;;;17.80;8.38;;;;;;;;;;5037645;28;20087;-62
2022/04/26 08:21:03;;;;;;;16.52;8.75;;;;;;;;;;5040204;28;20064;-62
2022/04/26 08:23:30;;;;;;;15.63;8.15;;;;;;;;;;5041992;28;20083;-62
2022/04/26 08:28:42;;;;;;;15.32;7.63;;;;;;;;;;5038801;28;20036;-63
2022/04/26 08:31:07;;;;;;;14.48;8.10;;;;;;;;;;5045907;28;20039;-62
2022/04/26 08:33:36;;;;;;;18.83;7.68;;;;;;;;;;5037639;28;20112;-63
2022/04/26 08:36:03;;;;;;;10.70;6.82;;;;;;;;;;5043197;28;20029;-62
2022/04/26 08:38:28;;;;;;;15.27;7.57;;;;;;;;;;5033683;28;20030;-62
2022/04/26 08:40:54;;;;;;;15.85;7.43;;;;;;;;;;5035610;28;20135;-63
2022/04/26 08:43:20;;;;;;;9.82;7.22;;;;;;;;;;5039068;28;20323;-63
2022/04/26 08:45:46;;;;;;;15.13;6.68;;;;;;;;;;5042763;28;20033;-62
2022/04/26 08:51:03;;;;;;;12.48;6.93;;;;;;;;;;5039787;28;20037;-63
2022/04/26 08:53:32;;;;;;;22.20;7.95;;;;;;;;;;5036056;28;20106;-62
2022/04/26 08:56:01;;;;;;;14.73;7.05;;;;;;;;;;5037086;28;20037;-62
2022/04/26 08:58:32;;;;;;;11.93;7.55;;;;;;;;;;5042079;28;20021;-63
2022/04/26 09:01:05;;;;;;;19.52;6.97;;;;;;;;;;5040102;28;20032;-63
2022/04/26 09:03:39;;;;;;;15.45;7.13;;;;;;;;;;5049884;28;20386;-62
2022/04/26 09:06:13;;;;;;;14.50;7.07;;;;;;;;;;5036393;28;20025;-62
2022/04/26 09:08:42;;;;;;;15.00;8.05;;;;;;;;;;5035781;28;20531;-63
2022/04/26 09:11:33;;;;;;;17.15;7.47;;;;;;;;;;5036218;28;20116;-63
2022/04/26 09:14:00;;;;;;;16.13;7.40;;;;;;;;;;5038863;28;20031;-62
2022/04/26 09:16:26;;;;;;;15.68;7.03;;;;;;;;;;5038791;28;20033;-63
2022/04/26 09:19:01;;;;;;;14.25;7.00;;;;;;;;;;5033962;28;20033;-63
2022/04/26 09:21:29;;;;;;;16.23;7.28;;;;;;;;;;5037301;28;20102;-63
2022/04/26 09:24:00;;;;;;;13.65;6.95;;;;;;;;;;5038024;28;20045;-63
2022/04/26 09:26:33;;;;;;;19.17;7.93;;;;;;;;;;5038595;28;20108;-63
2022/04/26 09:28:59;;;;;;;14.50;7.50;;;;;;;;;;5037143;28;20308;-63
2022/04/26 09:31:27;;;;;;;14.23;7.90;;;;;;;;;;5040937;28;20383;-62
2022/04/26 09:33:57;;;;;;;16.88;8.10;;;;;;;;;;5037712;28;20178;-63
2022/04/26 09:36:25;;;;;;;15.98;7.97;;;;;;;;;;5039914;28;20033;-63
2022/04/26 09:38:53;;;;;;;11.27;6.38;;;;;;;;;;5041458;28;20497;-63
2022/04/26 09:41:20;;;;;;;11.38;6.63;;;;;;;;;;5047548;28;20478;-63
2022/04/26 09:44:03;;;;;;;12.55;6.78;;;;;;;;;;5034762;28;20434;-63
2022/04/26 09:46:53;;;;;;;10.35;6.47;;;;;;;;;;5038475;28;20505;-63
2022/04/26 09:49:21;;;;;;;12.18;7.78;;;;;;;;;;5037435;28;20057;-63
2022/04/26 09:51:54;;;;;;;14.40;7.90;;;;;;;;;;5044363;28;20033;-63
2022/04/26 09:54:21;;;;;;;18.85;8.52;;;;;;;;;;5045109;28;20145;-63
2022/04/26 09:56:47;;;;;;;21.17;9.35;;;;;;;;;;5038087;28;20033;-63
2022/04/26 09:59:24;;;;;;;14.60;9.25;;;;;;;;;;5043936;28;20017;-62
2022/04/26 10:01:53;;;;;;;17.33;10.50;;;;;;;;;;5035819;28;20041;-63
2022/04/26 10:04:22;;;;;;;15.77;9.65;;;;;;;;;;5042116;28;20449;-63
2022/04/26 10:06:52;;;;;;;16.67;9.45;;;;;;;;;;5033308;28;20110;-63
2022/04/26 10:09:19;;;;;;;17.08;11.13;;;;;;;;;;5043305;28;20029;-63
2022/04/26 10:11:45;;;;;;;19.15;10.68;;;;;;;;;;5040613;28;20389;-63
2022/04/26 10:14:12;;;;;;;21.05;11.00;;;;;;;;;;5037470;28;20029;-63
2022/04/26 10:16:39;;;;;;;13.82;9.10;;;;;;;;;;5032772;28;20401;-63
2022/04/26 10:19:09;;;;;;;21.92;10.88;;;;;;;;;;5035652;28;20029;-63
2022/04/26 10:21:41;;;;;;;16.80;10.90;;;;;;;;;;5037324;28;20045;-63
2022/04/26 10:24:16;;;;;;;14.05;10.80;;;;;;;;;;5034149;28;20033;-63
2022/04/26 10:26:41;;;;;;;17.67;10.88;;;;;;;;;;5043433;28;20463;-63
2022/04/26 10:29:07;;;;;;;19.75;11.40;;;;;;;;;;5032828;28;20037;-63
2022/04/26 10:31:34;;;;;;;18.75;11.13;;;;;;;;;;5036257;28;20055;-63
2022/04/26 10:34:00;;;;;;;17.25;10.45;;;;;;;;;;5038881;28;20037;-63
2022/04/26 10:36:29;;;;;;;17.67;10.48;;;;;;;;;;5033794;28;20034;-63
2022/04/26 10:39:07;;;;;;;18.70;10.20;;;;;;;;;;5068436;28;20029;-63
2022/04/26 10:41:34;;;;;;;15.80;9.98;;;;;;;;;;5035805;28;20040;-63
2022/04/26 10:46:42;;;;;;;16.90;10.43;;;;;;;;;;5041816;28;20032;-63
2022/04/26 10:49:29;;;;;;;15.55;8.98;;;;;;;;;;5044652;28;20017;-63
2022/04/26 10:51:56;;;;;;;14.00;8.00;;;;;;;;;;5040673;28;20040;-63
2022/04/26 10:54:51;;;;;;;14.60;8.00;;;;;;;;;;5035456;28;20072;-63
2022/04/26 10:57:19;;;;;;;13.05;8.40;;;;;;;;;;5042620;28;20962;-63
2022/04/26 10:59:54;;;;;;;10.85;6.75;;;;;;;;;;5036617;28;20029;-63
2022/04/26 11:02:21;;;;;;;11.88;6.72;;;;;;;;;;5040024;28;20056;-62
2022/04/26 11:04:56;;;;;;;11.77;6.82;;;;;;;;;;5040275;28;20024;-62
2022/04/26 11:07:25;;;;;;;14.77;5.88;;;;;;;;;;5041220;28;20486;-62
2022/04/26 11:09:53;;;;;;;7.50;5.38;;;;;;;;;;5036027;28;20044;-62
2022/04/26 11:12:24;;;;;;;14.07;5.43;;;;;;;;;;5038561;28;20274;-63
2022/04/26 11:14:52;;;;;;;10.57;5.95;;;;;;;;;;5038410;28;20029;-62
2022/04/26 11:17:19;;;;;;;8.23;5.30;;;;;;;;;;5045303;28;20466;-62
2022/04/26 11:19:48;;;;;;;13.40;6.25;;;;;;;;;;5036845;28;20040;-62
2022/04/26 11:22:15;;;;;;;12.57;5.30;;;;;;;;;;5035223;28;20141;-62
2022/04/26 11:30:29;;;;;;;11.20;5.25;;;;;;;;;;5032713;28;20033;-62
2022/04/26 11:33:19;;;;;;;8.40;5.13;;;;;;;;;;5038512;28;20409;-62
2022/04/26 11:35:51;;;;;;;7.95;4.53;;;;;;;;;;5034952;28;20406;-62
2022/04/26 11:38:17;;;;;;;9.10;4.75;;;;;;;;;;5032385;28;20036;-62
2022/04/26 11:40:51;;;;;;;9.57;4.70;;;;;;;;;;5040941;28;20040;-62
2022/04/26 11:43:19;;;;;;;6.38;4.22;;;;;;;;;;5038654;28;20123;-63
2022/04/26 11:45:48;;;;;;;7.63;4.20;;;;;;;;;;5037940;28;20527;-62
2022/04/26 11:48:15;;;;;;;7.43;3.92;;;;;;;;;;5041942;28;20039;-62
2022/04/26 11:50:43;;;;;;;9.65;5.00;;;;;;;;;;5042310;28;20040;-62
2022/04/26 11:53:11;;;;;;;10.02;4.93;;;;;;;;;;5035066;28;20049;-62
2022/04/26 11:55:39;;;;;;;14.00;4.07;;;;;;;;;;5036985;28;20072;-62
2022/04/26 11:58:10;;;;;;;8.70;3.88;;;;;;;;;;5035193;28;20108;-62
2022/04/26 12:00:54;;;;;;;7.63;4.20;;;;;;;;;;5034891;28;20024;-61
2022/04/26 12:03:22;;;;;;;9.35;4.65;;;;;;;;;;5037056;28;20033;-63
2022/04/26 12:06:13;;;;;;;7.45;4.72;;;;;;;;;;5031706;28;20029;-62
2022/04/26 12:08:42;;;;;;;8.60;4.32;;;;;;;;;;5035456;28;20083;-62
2022/04/26 12:11:15;;;;;;;6.97;3.83;;;;;;;;;;5031313;28;20033;-63
2022/04/26 12:13:41;;;;;;;12.63;4.10;;;;;;;;;;5033264;28;20041;-62
2022/04/26 12:16:18;;;;;;;6.30;3.90;;;;;;;;;;5036614;28;20702;-63
2022/04/26 12:18:51;;;;;;;7.03;3.90;;;;;;;;;;5037591;28;20032;-62
2022/04/26 12:21:17;;;;;;;6.15;4.13;;;;;;;;;;5037721;28;20367;-62
2022/04/26 12:23:43;;;;;;;5.20;3.58;;;;;;;;;;5035398;28;20087;-62
2022/04/26 12:26:09;;;;;;;9.27;3.95;;;;;;;;;;5033059;28;20029;-62
2022/04/26 12:28:46;;;;;;;8.10;3.85;;;;;;;;;;5040676;28;20503;-62
2022/04/26 12:31:29;;;;;;;4.68;4.20;;;;;;;;;;5042099;28;20087;-62
2022/04/26 12:36:59;;;;;;;5.45;3.38;;;;;;;;;;5028926;28;20041;-63
2022/04/26 12:39:43;;;;;;;4.95;3.28;;;;;;;;;;5038872;28;20036;-63
2022/04/26 12:42:28;;;;;;;4.40;2.90;;;;;;;;;;5038977;28;20072;-62
2022/04/26 12:44:57;;;;;;;6.32;3.80;;;;;;;;;;5042615;28;20136;-62
2022/04/26 12:50:36;;;;;;;3.53;2.83;;;;;;;;;;5037213;28;20029;-62
2022/04/26 12:53:05;;;;;;;;;;;;;;;;;;5039801;28;20928;-62
2022/04/26 12:55:36;;;;;;;3.35;3.05;;;;;;;;;;5044940;28;19917;-63
2022/04/26 12:58:07;;;;;;;4.15;3.03;;;;;;;;;;5037443;28;20486;-62
2022/04/26 13:00:40;;;;;;;5.47;2.88;;;;;;;;;;5038135;28;20083;-60
2022/04/26 13:03:07;;;;;;;3.15;2.85;;;;;;;;;;5040773;28;20064;-63
2022/04/26 13:05:44;;;;;;;3.97;2.95;;;;;;;;;;5036569;28;20154;-63
2022/04/26 13:08:12;;;;;;;4.03;2.53;;;;;;;;;;5032882;28;20045;-63
2022/04/26 13:10:41;;;;;;;5.53;2.58;;;;;;;;;;5034101;28;20091;-62
2022/04/26 13:13:09;;;;;;;3.33;2.10;;;;;;;;;;5039910;28;20406;-63
2022/04/26 13:15:35;;;;;;;3.53;2.33;;;;;;;;;;5036899;28;20029;-62
2022/04/26 13:18:01;;;;;;;4.13;2.33;;;;;;;;;;5045208;28;20028;-62
2022/04/26 13:20:28;;;;;;;2.95;2.45;;;;;;;;;;5046446;28;20482;-62
2022/04/26 13:22:53;;;;;;;3.92;2.75;;;;;;;;;;5037549;28;20432;-63
2022/04/26 13:25:19;;;;;;;7.85;4.40;;;;;;;;;;5037406;28;20033;-62
2022/04/26 13:27:48;;;;;;;6.25;3.65;;;;;;;;;;5042124;28;20029;-63
2022/04/26 13:30:16;;;;;;;5.63;3.78;;;;;;;;;;5036729;28;20033;-63
2022/04/26 13:32:42;;;;;;;5.32;3.00;;;;;;;;;;5044682;28;20057;-63
2022/04/26 13:35:09;;;;;;;4.28;3.08;;;;;;;;;;5041319;28;20028;-63
2022/04/26 13:37:35;;;;;;;3.65;3.00;;;;;;;;;;5046973;28;20100;-63
2022/04/26 13:40:02;;;;;;;3.40;3.03;;;;;;;;;;5036760;28;20028;-63
2022/04/26 13:42:30;;;;;;;4.57;2.85;;;;;;;;;;5041341;28;20036;-62
2022/04/26 13:44:58;;;;;;;4.05;2.72;;;;;;;;;;5040671;28;20178;-62
2022/04/26 13:47:25;;;;;;;3.50;2.70;;;;;;;;;;5041141;28;20389;-63
2022/04/26 13:49:53;;;;;;;3.33;2.58;;;;;;;;;;5036143;28;20488;-63
2022/04/26 13:52:20;;;;;;;5.43;2.47;;;;;;;;;;5038795;28;20129;-63
2022/04/26 13:54:47;;;;;;;7.00;2.40;;;;;;;;;;5038532;28;20065;-63
2022/04/26 13:57:12;;;;;;;3.22;2.20;;;;;;;;;;5038038;28;20029;-63
2022/04/26 13:59:38;;;;;;;4.50;2.85;;;;;;;;;;5040685;28;20382;-62
2022/04/26 14:02:05;;;;;;;4.75;3.15;;;;;;;;;;5040863;28;20123;-62
2022/04/26 14:04:31;;;;;;;10.40;3.45;;;;;;;;;;5039973;28;20033;-62
2022/04/26 14:06:58;;;;;;;8.07;3.90;;;;;;;;;;5074453;28;20114;-62
2022/04/26 14:09:23;;;;;;;6.40;3.78;;;;;;;;;;5038591;28;20541;-62
2022/04/26 14:11:51;;;;;;;7.93;3.90;;;;;;;;;;5040372;28;20054;-62
2022/04/26 14:22:32;;;;;;;5.22;3.70;;;;;;;;;;5038608;28;20033;-62
2022/04/26 14:24:59;;;;;;;10.00;4.10;;;;;;;;;;5043769;28;20040;-62
2022/04/26 14:27:29;;;;;;;4.95;3.60;;;;;;;;;;5038874;28;20029;-62
2022/04/26 14:29:55;;;;;;;8.18;3.97;;;;;;;;;;5041248;28;20397;-63
2022/04/26 14:32:21;;;;;;;9.38;3.97;;;;;;;;;;5039118;28;20036;-63
2022/04/26 14:34:48;;;;;;;6.05;3.25;;;;;;;;;;5039749;28;20115;-62
2022/04/26 14:37:15;;;;;;;6.53;3.63;;;;;;;;;;5043606;28;20032;-62
2022/04/26 14:39:40;;;;;;;7.15;3.83;;;;;;;;;;5035223;28;20482;-62
2022/04/26 14:42:06;;;;;;;16.92;4.07;;;;;;;;;;5039786;28;20033;-62
2022/04/26 14:44:32;;;;;;;6.45;4.45;;;;;;;;;;5037161;28;20036;-62
2022/04/26 14:46:58;;;;;;;7.10;4.60;;;;;;;;;;5038489;28;20389;-62
2022/04/26 14:49:23;;;;;;;8.77;4.45;;;;;;;;;;5044233;28;20502;-62
2022/04/26 14:51:49;;;;;;;6.93;4.85;;;;;;;;;;5034647;28;20405;-62
2022/04/26 14:54:15;;;;;;;7.07;5.35;;;;;;;;;;5041059;28;20439;-62
2022/04/26 14:56:41;;;;;;;5.85;5.25;;;;;;;;;;5032727;28;20052;-63
2022/04/26 14:59:07;;;;;;;7.75;4.88;;;;;;;;;;5041259;28;20032;-62
2022/04/26 15:01:34;;;;;;;5.72;4.97;;;;;;;;;;5043554;28;20033;-62
2022/04/26 15:04:00;;;;;;;8.57;5.07;;;;;;;;;;5033971;28;20055;-61
2022/04/26 15:06:26;;;;;;;9.35;5.70;;;;;;;;;;5038501;28;20045;-62
2022/04/26 15:11:36;;;;;;;7.25;4.93;;;;;;;;;;5034916;28;20025;-63
2022/04/26 15:16:49;;;;;;;8.45;4.63;;;;;;;;;;5038243;28;20033;-63
2022/04/26 15:19:15;;;;;;;6.95;5.15;;;;;;;;;;5041608;28;20726;-63
2022/04/26 15:21:43;;;;;;;6.45;4.75;;;;;;;;;;5043918;28;20025;-63
2022/04/26 15:24:11;;;;;;;7.15;4.90;;;;;;;;;;5039029;28;20043;-63
2022/04/26 15:26:37;;;;;;;8.50;4.55;;;;;;;;;;5034677;28;20543;-63
2022/04/26 15:29:06;;;;;;;9.90;5.15;;;;;;;;;;5043206;28;20037;-62
2022/04/26 15:31:34;;;;;;;8.50;5.47;;;;;;;;;;5035392;28;20053;-63
2022/04/26 15:33:59;;;;;;;5.20;4.68;;;;;;;;;;5037838;28;20482;-63
2022/04/26 15:36:25;;;;;;;7.55;4.38;;;;;;;;;;5038546;28;20086;-63
2022/04/26 15:38:54;;;;;;;7.70;4.90;;;;;;;;;;5035386;28;20026;-63
2022/04/26 15:41:23;;;;;;;6.28;4.78;;;;;;;;;;5035467;28;20032;-63
2022/04/26 15:43:49;;;;;;;7.75;4.75;;;;;;;;;;5036259;28;20117;-62
2022/04/26 15:46:15;;;;;;;13.75;4.40;;;;;;;;;;5037108;28;20542;-62
2022/04/26 15:48:47;;;;;;;6.93;4.72;;;;;;;;;;5039102;28;20025;-62
2022/04/26 15:51:13;;;;;;;11.20;4.95;;;;;;;;;;5040672;28;20033;-63
2022/04/26 15:53:39;;;;;;;7.07;4.72;;;;;;;;;;5036306;28;20045;-62
2022/04/26 15:56:05;;;;;;;7.65;4.70;;;;;;;;;;5032618;28;20040;-62
2022/04/26 15:58:31;;;;;;;7.35;4.72;;;;;;;;;;5038191;28;20040;-62
2022/04/26 16:00:57;;;;;;;5.80;4.80;;;;;;;;;;5038952;28;20032;-63
2022/04/26 16:03:23;;;;;;;4.90;4.50;;;;;;;;;;5034623;28;20025;-62
2022/04/26 16:05:48;;;;;;;10.15;4.30;;;;;;;;;;5033831;28;20079;-62
2022/04/26 16:08:14;;;;;;;7.45;4.47;;;;;;;;;;5042168;28;20021;-62
2022/04/26 16:21:38;;;;;;;9.52;5.00;;;;;;;;;;5041850;28;20133;-62
2022/04/26 16:24:04;;;;;;;10.25;4.68;;;;;;;;;;5041044;28;20115;-62
2022/04/26 16:26:34;;;;;;;9.88;4.90;;;;;;;;;;5038036;28;20033;-62
2022/04/26 16:29:00;;;;;;;7.40;4.82;;;;;;;;;;5041029;28;20045;-62
2022/04/26 16:31:29;;;;;;;11.68;4.80;;;;;;;;;;5042533;28;20491;-62
2022/04/26 16:33:56;;;;;;;6.35;4.80;;;;;;;;;;5039828;28;20044;-62
2022/04/26 16:36:22;;;;;;;11.63;5.18;;;;;;;;;;5044574;28;20063;-62
2022/04/26 16:38:48;;;;;;;4.82;3.95;;;;;;;;;;5043534;28;20033;-63
2022/04/26 16:41:14;;;;;;;7.50;4.80;;;;;;;;;;5038824;28;20474;-62
2022/04/26 16:43:40;;;;;;;11.20;4.45;;;;;;;;;;5040317;28;20041;-62
2022/04/26 16:46:06;;;;;;;7.40;4.90;;;;;;;;;;5040548;28;20033;-62
2022/04/26 16:48:33;;;;;;;12.25;4.47;;;;;;;;;;5068802;28;20033;-62
2022/04/26 16:50:59;;;;;;;6.30;4.40;;;;;;;;;;5041156;28;20021;-63
2022/04/26 16:53:25;;;;;;;11.00;5.18;;;;;;;;;;5045098;28;20048;-63
2022/04/26 16:55:50;;;;;;;10.65;4.85;;;;;;;;;;5040982;28;20036;-63
2022/04/26 16:58:18;;;;;;;9.90;5.32;;;;;;;;;;5039841;28;20018;-63
2022/04/26 17:00:45;;;;;;;8.02;5.05;;;;;;;;;;5041747;28;20021;-62
2022/04/26 17:03:14;;;;;;;8.55;5.00;;;;;;;;;;5043534;28;20493;-63
2022/04/26 17:05:45;;;;;;;7.65;4.72;;;;;;;;;;5031705;28;20047;-63
2022/04/26 17:08:12;;;;;;;6.95;4.90;;;;;;;;;;5038643;28;20025;-63
2022/04/26 17:10:38;;;;;;;5.50;4.38;;;;;;;;;;5037299;28;20632;-63
2022/04/26 17:13:04;;;;;;;7.57;5.07;;;;;;;;;;5039719;28;20047;-63
2022/04/26 17:15:31;;;;;;;8.55;5.32;;;;;;;;;;5039248;28;20029;-63
2022/04/26 17:17:57;;;;;;;11.57;5.05;;;;;;;;;;5037966;28;20516;-63
2022/04/26 17:20:23;;;;;;;11.45;4.38;;;;;;;;;;5039916;28;20064;-63
2022/04/26 17:22:50;;;;;;;11.40;4.90;;;;;;;;;;5039903;28;20060;-63
2022/04/26 17:25:17;;;;;;;8.77;5.30;;;;;;;;;;5040248;28;20034;-63
2022/04/26 17:27:50;;;;;;;10.52;5.75;;;;;;;;;;5040081;28;20025;-63
2022/04/26 17:30:16;;;;;;;9.98;4.68;;;;;;;;;;5040036;28;20020;-63
2022/04/26 17:32:43;;;;;;;6.30;4.60;;;;;;;;;;5037191;28;20026;-62
2022/04/26 17:35:10;;;;;;;8.60;4.85;;;;;;;;;;5039281;28;20033;-63
2022/04/26 17:37:38;;;;;;;11.90;4.93;;;;;;;;;;5037402;28;20041;-63
2022/04/26 17:40:05;;;;;;;7.72;4.35;;;;;;;;;;5041240;28;20021;-62
2022/04/26 17:42:34;;;;;;;6.05;4.40;;;;;;;;;;5038553;28;20025;-63
2022/04/26 17:45:07;;;;;;;7.25;4.35;;;;;;;;;;5037291;28;20065;-63
2022/04/26 17:47:33;;;;;;;8.25;4.82;;;;;;;;;;5034801;28;20025;-63
2022/04/26 17:50:00;;;;;;;12.20;5.40;;;;;;;;;;5040850;28;20055;-63
2022/04/26 17:52:29;;;;;;;11.38;5.53;;;;;;;;;;5042042;28;20524;-63
2022/04/26 17:57:41;;;;;;;11.95;5.50;;;;;;;;;;5035439;28;20108;-63
2022/04/26 18:00:09;;;;;;;6.68;5.13;;;;;;;;;;5039978;28;20036;-63
2022/04/26 18:02:35;;;;;;;13.13;5.22;;;;;;;;;;5041386;28;20090;-62
2022/04/26 18:05:03;;;;;;;10.13;5.25;;;;;;;;;;5035349;28;20037;-63
2022/04/26 18:07:29;;;;;;;10.90;5.35;;;;;;;;;;5042903;28;20028;-63
2022/04/26 18:09:54;;;;;;;9.43;4.85;;;;;;;;;;5040487;28;20116;-62
2022/04/26 18:12:21;;;;;;;8.02;4.57;;;;;;;;;;5037268;28;20033;-63
2022/04/26 18:14:47;;;;;;;10.07;5.47;;;;;;;;;;5041314;28;20039;-63
2022/04/26 18:17:14;;;;;;;12.65;6.90;;;;;;;;;;5039734;28;20474;-63
2022/04/26 18:19:40;;;;;;;16.65;8.85;;;;;;;;;;5041977;28;20095;-63
2022/04/26 18:22:06;;;;;;;9.52;6.38;;;;;;;;;;5040292;28;20021;-63
2022/04/26 18:24:32;;;;;;;9.95;6.13;;;;;;;;;;5041331;28;20107;-63
2022/04/26 18:26:58;;;;;;;11.05;5.97;;;;;;;;;;5044076;28;20120;-63
2022/04/26 18:29:24;;;;;;;9.57;5.72;;;;;;;;;;5042093;28;22851;-63
2022/04/26 18:31:50;;;;;;;14.43;6.00;;;;;;;;;;5034806;28;20029;-63
2022/04/26 18:34:20;;;;;;;10.18;5.65;;;;;;;;;;5036602;28;20033;-63
2022/04/26 18:36:47;;;;;;;10.80;5.00;;;;;;;;;;5042050;28;20075;-63
2022/04/26 18:39:13;;;;;;;10.23;5.40;;;;;;;;;;5039649;28;20474;-63
2022/04/26 18:41:38;;;;;;;13.90;5.25;;;;;;;;;;5039620;28;20043;-63
2022/04/26 18:44:04;;;;;;;7.82;4.80;;;;;;;;;;5037140;28;20048;-63
2022/04/26 18:46:30;;;;;;;9.98;5.32;;;;;;;;;;5038324;28;20482;-63
2022/04/26 18:48:56;;;;;;;9.90;5.82;;;;;;;;;;5039843;28;20032;-63
2022/04/26 18:51:22;;;;;;;9.02;5.90;;;;;;;;;;5039876;28;20028;-64
2022/04/26 18:53:48;;;;;;;10.00;5.57;;;;;;;;;;5036963;28;20045;-63
2022/04/26 18:56:14;;;;;;;7.10;5.30;;;;;;;;;;5037875;28;20060;-63
2022/04/26 18:58:40;;;;;;;9.48;6.43;;;;;;;;;;5038730;28;20060;-63
2022/04/26 19:01:06;;;;;;;10.40;5.18;;;;;;;;;;5036372;28;20080;-63
2022/04/26 19:03:32;;;;;;;10.13;5.78;;;;;;;;;;5038774;28;20028;-64
2022/04/26 19:05:59;;;;;;;8.35;5.10;;;;;;;;;;5036424;28;20035;-63